createdAt,value
2022-10-30T00:00:24.376Z,14.40
2022-10-30T00:02:50.973Z,14.40
2022-10-30T00:05:18.470Z,14.40
2022-10-30T00:10:11.996Z,14.30
2022-10-30T00:12:38.503Z,14.30
2022-10-30T00:15:06.098Z,14.30
2022-10-30T00:17:33.291Z,14.40
2022-10-30T00:19:59.887Z,14.40
2022-10-30T00:22:26.594Z,14.30
2022-10-30T00:24:53.105Z,14.30
2022-10-30T00:27:19.647Z,14.50
2022-10-30T00:29:46.168Z,14.40
2022-10-30T00:32:12.711Z,14.40
2022-10-30T00:34:39.271Z,14.40
2022-10-30T00:37:05.777Z,14.40
2022-10-30T00:39:32.323Z,14.40
2022-10-30T00:41:58.854Z,14.40
2022-10-30T00:44:43.978Z,14.40
2022-10-30T00:47:32.090Z,14.40
2022-10-30T00:50:04.363Z,14.50
2022-10-30T00:52:35.907Z,14.40
2022-10-30T00:55:09.321Z,14.40
2022-10-30T00:57:37.319Z,14.50
2022-10-30T01:00:06.029Z,14.40
2022-10-30T01:02:32.984Z,14.40
2022-10-30T01:05:00.800Z,14.40
2022-10-30T01:07:27.396Z,14.40
2022-10-30T01:09:53.915Z,14.40
2022-10-30T01:12:20.451Z,14.40
2022-10-30T01:14:51.543Z,14.50
2022-10-30T01:17:39.329Z,14.40
2022-10-30T01:20:20.590Z,14.40
2022-10-30T01:23:25.143Z,14.40
2022-10-30T01:26:10.198Z,14.40
2022-10-30T01:28:59.743Z,14.40
2022-10-30T01:31:51.714Z,14.40
2022-10-30T01:34:33.353Z,14.40
2022-10-30T01:37:21.189Z,14.40
2022-10-30T01:39:47.746Z,14.40
2022-10-30T01:42:37.513Z,14.40
2022-10-30T01:45:04.943Z,14.40
2022-10-30T01:47:46.246Z,14.40
2022-10-30T01:50:37.177Z,14.40
2022-10-30T01:53:09.357Z,14.40
2022-10-30T01:55:47.395Z,14.40
2022-10-30T01:58:28.357Z,14.40
2022-10-30T02:00:57.944Z,14.40
2022-10-30T02:03:25.626Z,14.40
2022-10-30T02:05:56.063Z,14.30
2022-10-30T02:08:22.906Z,14.40
2022-10-30T02:10:52.016Z,14.30
2022-10-30T02:13:19.023Z,14.30
2022-10-30T02:15:47.575Z,14.30
2022-10-30T02:18:14.081Z,14.30
2022-10-30T02:20:40.741Z,14.30
2022-10-30T02:23:08.865Z,14.30
2022-10-30T02:25:35.794Z,14.30
2022-10-30T02:28:02.299Z,14.30
2022-10-30T02:30:28.987Z,14.20
2022-10-30T02:32:55.876Z,14.20
2022-10-30T02:35:22.738Z,14.20
2022-10-30T02:37:49.643Z,14.20
2022-10-30T02:40:16.386Z,14.10
2022-10-30T02:42:43.048Z,14.20
2022-10-30T02:45:10.602Z,14.10
2022-10-30T02:47:37.128Z,14.20
2022-10-30T02:50:03.967Z,14.10
2022-10-30T02:52:30.495Z,14.10
2022-10-30T02:54:57.021Z,14.00
2022-10-30T02:57:23.539Z,14.00
2022-10-30T02:59:50.048Z,14.00
2022-10-30T03:02:16.650Z,14.00
2022-10-30T03:04:43.209Z,14.00
2022-10-30T03:07:09.803Z,13.90
2022-10-30T03:09:36.318Z,13.90
2022-10-30T03:12:02.940Z,13.90
2022-10-30T03:14:29.479Z,13.90
2022-10-30T03:16:56.020Z,13.90
2022-10-30T03:19:22.565Z,14.00
2022-10-30T03:21:49.425Z,14.00
2022-10-30T03:24:15.959Z,14.00
2022-10-30T03:26:42.470Z,13.90
2022-10-30T03:29:09.001Z,14.00
2022-10-30T03:31:35.570Z,13.90
2022-10-30T03:34:02.130Z,14.00
2022-10-30T03:36:28.655Z,14.00
2022-10-30T03:38:55.170Z,14.00
2022-10-30T03:41:21.782Z,14.00
2022-10-30T03:43:48.290Z,14.00
2022-10-30T03:46:14.789Z,14.00
2022-10-30T03:48:41.318Z,14.00
2022-10-30T03:51:07.828Z,14.00
2022-10-30T03:53:34.515Z,13.90
2022-10-30T03:56:04.357Z,14.00
2022-10-30T03:58:30.900Z,14.00
2022-10-30T04:01:05.044Z,14.00
2022-10-30T04:03:31.791Z,14.00
2022-10-30T04:05:58.421Z,14.00
2022-10-30T04:08:24.984Z,14.00
2022-10-30T04:10:51.678Z,14.10
2022-10-30T04:13:20.169Z,14.00
2022-10-30T04:15:54.205Z,14.10
2022-10-30T04:18:24.607Z,14.10
2022-10-30T04:20:51.141Z,14.10
2022-10-30T04:23:20.063Z,14.10
2022-10-30T04:25:46.676Z,14.10
2022-10-30T04:28:14.147Z,14.10
2022-10-30T04:30:41.517Z,14.10
2022-10-30T04:33:12.080Z,14.10
2022-10-30T04:35:39.025Z,14.00
2022-10-30T04:38:08.068Z,14.00
2022-10-30T04:40:39.444Z,14.10
2022-10-30T04:43:07.148Z,14.10
2022-10-30T04:45:34.204Z,14.00
2022-10-30T04:48:02.881Z,14.00
2022-10-30T04:50:30.207Z,14.10
2022-10-30T04:53:04.813Z,14.00
2022-10-30T04:55:32.137Z,14.20
2022-10-30T04:58:00.622Z,14.00
2022-10-30T05:00:27.757Z,14.00
2022-10-30T05:02:54.911Z,14.00
2022-10-30T05:05:21.634Z,14.00
2022-10-30T05:07:48.184Z,14.00
2022-10-30T05:10:15.337Z,14.00
2022-10-30T05:12:43.259Z,14.00
2022-10-30T05:15:10.730Z,14.00
2022-10-30T05:17:37.475Z,14.00
2022-10-30T05:20:05.211Z,13.90
2022-10-30T05:22:31.819Z,14.00
2022-10-30T05:24:58.415Z,13.90
2022-10-30T05:27:24.933Z,13.90
2022-10-30T05:29:51.465Z,13.90
2022-10-30T05:32:17.999Z,13.90
2022-10-30T05:34:45.121Z,13.90
2022-10-30T05:37:11.810Z,13.90
2022-10-30T05:39:38.351Z,13.90
2022-10-30T05:42:06.614Z,13.90
2022-10-30T05:44:59.095Z,13.90
2022-10-30T05:47:21.635Z,13.90
2022-10-30T05:49:48.146Z,13.80
2022-10-30T05:52:14.870Z,13.80
2022-10-30T05:54:41.379Z,13.90
2022-10-30T05:57:07.931Z,13.80
2022-10-30T05:59:34.446Z,13.80
2022-10-30T06:04:28.062Z,13.70
2022-10-30T06:06:54.624Z,13.70
2022-10-30T06:09:21.127Z,13.70
2022-10-30T06:11:47.738Z,13.70
2022-10-30T06:14:14.246Z,13.70
2022-10-30T06:16:40.784Z,13.70
2022-10-30T06:19:07.356Z,13.70
2022-10-30T06:21:33.917Z,13.70
2022-10-30T06:24:00.465Z,13.70
2022-10-30T06:26:26.980Z,13.70
2022-10-30T06:28:53.494Z,13.70
2022-10-30T06:38:46.103Z,13.50
2022-10-30T06:41:12.653Z,13.60
2022-10-30T06:43:39.236Z,13.60
2022-10-30T06:48:37.256Z,13.50
2022-10-30T06:51:03.805Z,13.50
2022-10-30T06:53:30.525Z,13.50
2022-10-30T06:55:59.345Z,13.60
2022-10-30T06:58:26.720Z,13.50
2022-10-30T07:00:53.345Z,13.50
2022-10-30T07:03:20.776Z,13.50
2022-10-30T07:05:47.443Z,13.60
2022-10-30T07:08:14.075Z,13.50
2022-10-30T07:10:40.669Z,13.50
2022-10-30T07:13:08.494Z,13.50
2022-10-30T07:15:35.746Z,13.50
2022-10-30T07:18:03.846Z,13.50
2022-10-30T07:20:32.978Z,13.50
2022-10-30T07:23:00.020Z,13.50
2022-10-30T07:25:27.014Z,13.50
2022-10-30T07:27:54.977Z,13.50
2022-10-30T07:33:01.568Z,13.60
2022-10-30T07:35:29.343Z,13.60
2022-10-30T07:37:56.156Z,13.60
2022-10-30T07:40:23.117Z,13.60
2022-10-30T07:42:57.237Z,13.60
2022-10-30T07:45:24.394Z,13.70
2022-10-30T07:47:50.928Z,13.70
2022-10-30T07:50:17.523Z,13.60
2022-10-30T07:52:44.088Z,13.70
2022-10-30T07:55:10.634Z,13.60
2022-10-30T07:57:38.809Z,13.80
2022-10-30T08:00:07.346Z,13.80
2022-10-30T08:02:33.933Z,13.80
2022-10-30T08:05:00.819Z,13.90
2022-10-30T08:07:31.908Z,13.90
2022-10-30T08:09:58.763Z,13.90
2022-10-30T08:12:26.500Z,14.00
2022-10-30T08:14:53.776Z,14.00
2022-10-30T08:17:21.270Z,14.00
2022-10-30T08:19:47.917Z,14.10
2022-10-30T08:22:14.709Z,14.10
2022-10-30T08:24:41.242Z,14.10
2022-10-30T08:27:08.215Z,14.10
2022-10-30T08:29:34.833Z,14.20
2022-10-30T08:32:01.639Z,14.20
2022-10-30T08:34:31.481Z,14.30
2022-10-30T08:36:58.271Z,14.40
2022-10-30T08:39:24.849Z,14.30
2022-10-30T08:41:51.405Z,14.30
2022-10-30T08:44:17.928Z,14.40
2022-10-30T08:46:44.464Z,14.40
2022-10-30T08:49:11.003Z,14.50
2022-10-30T08:51:37.535Z,14.30
2022-10-30T08:54:04.193Z,14.40
2022-10-30T08:56:30.727Z,14.60
2022-10-30T08:58:57.266Z,14.50
2022-10-30T09:01:23.877Z,14.60
2022-10-30T09:03:50.505Z,14.60
2022-10-30T09:06:17.086Z,14.60
2022-10-30T09:08:43.711Z,14.80
2022-10-30T09:11:10.482Z,14.70
2022-10-30T09:13:37.060Z,14.80
2022-10-30T09:16:04.367Z,14.70
2022-10-30T09:18:31.099Z,14.80
2022-10-30T09:20:57.610Z,14.90
2022-10-30T09:23:24.335Z,14.90
2022-10-30T09:25:50.878Z,14.90
2022-10-30T09:28:17.435Z,15.00
2022-10-30T09:30:43.959Z,15.00
2022-10-30T09:33:10.650Z,15.00
2022-10-30T09:35:37.252Z,15.10
2022-10-30T09:38:03.783Z,15.10
2022-10-30T09:41:10.424Z,15.20
2022-10-30T09:43:47.783Z,15.20
2022-10-30T09:46:43.506Z,15.30
2022-10-30T09:49:47.039Z,15.30
2022-10-30T09:52:19.280Z,15.40
2022-10-30T09:54:56.272Z,15.40
2022-10-30T09:57:53.650Z,15.40
2022-10-30T10:00:22.974Z,15.50
2022-10-30T10:03:00.799Z,15.50
2022-10-30T10:05:52.729Z,15.50
2022-10-30T10:08:31.974Z,15.50
2022-10-30T10:11:08.276Z,15.50
2022-10-30T10:13:45.811Z,15.60
2022-10-30T10:16:20.213Z,15.60
2022-10-30T10:19:08.718Z,15.70
2022-10-30T10:21:42.867Z,15.70
2022-10-30T10:24:20.756Z,15.70
2022-10-30T10:26:53.579Z,15.80
2022-10-30T10:29:38.434Z,15.80
2022-10-30T10:32:16.617Z,15.90
2022-10-30T10:38:02.547Z,16.00
2022-10-30T10:41:00.934Z,16.00
2022-10-30T10:43:58.542Z,16.10
2022-10-30T10:46:48.818Z,16.10
2022-10-30T10:49:49.247Z,16.10
2022-10-30T10:52:21.542Z,16.20
2022-10-30T10:54:52.522Z,16.20
2022-10-30T10:57:33.544Z,16.20
2022-10-30T11:00:08.960Z,16.20
2022-10-30T11:03:05.024Z,16.30
2022-10-30T11:05:41.643Z,16.30
2022-10-30T11:08:27.993Z,16.30
2022-10-30T11:11:07.532Z,16.40
2022-10-30T11:13:39.793Z,16.40
2022-10-30T11:16:24.658Z,16.50
2022-10-30T11:19:01.122Z,16.50
2022-10-30T11:21:31.866Z,16.60
2022-10-30T11:23:58.394Z,16.60
2022-10-30T11:26:29.319Z,16.60
2022-10-30T11:29:18.430Z,16.70
2022-10-30T11:31:45.649Z,16.70
2022-10-30T11:34:18.165Z,16.80
2022-10-30T11:36:44.691Z,16.80
2022-10-30T11:39:17.887Z,16.90
2022-10-30T11:41:55.626Z,16.90
2022-10-30T11:44:30.507Z,17.00
2022-10-30T11:46:57.798Z,17.00
2022-10-30T11:49:46.512Z,17.10
2022-10-30T11:52:16.723Z,17.00
2022-10-30T11:54:48.680Z,17.10
2022-10-30T11:57:23.395Z,17.10
2022-10-30T11:59:53.838Z,17.20
2022-10-30T12:02:29.585Z,17.20
2022-10-30T12:05:01.448Z,17.20
2022-10-30T12:07:33.092Z,17.20
2022-10-30T12:10:01.541Z,17.20
2022-10-30T12:12:39.322Z,17.30
2022-10-30T12:15:14.926Z,17.20
2022-10-30T12:17:50.192Z,17.30
2022-10-30T12:20:16.947Z,17.30
2022-10-30T12:22:43.635Z,17.30
2022-10-30T12:25:29.166Z,17.30
2022-10-30T12:28:18.598Z,17.40
2022-10-30T12:30:54.784Z,17.40
2022-10-30T12:33:43.479Z,17.40
2022-10-30T12:36:23.081Z,17.40
2022-10-30T12:38:59.213Z,17.50
2022-10-30T12:41:43.255Z,17.40
2022-10-30T12:44:16.916Z,17.50
2022-10-30T12:46:54.681Z,17.50
2022-10-30T12:49:25.709Z,17.50
2022-10-30T12:52:07.467Z,17.50
2022-10-30T12:54:44.307Z,17.50
2022-10-30T12:57:27.870Z,17.50
2022-10-30T13:00:06.564Z,17.60
2022-10-30T13:02:57.642Z,17.60
2022-10-30T13:05:24.308Z,17.60
2022-10-30T13:08:10.670Z,17.60
2022-10-30T13:10:49.122Z,17.70
2022-10-30T13:13:25.340Z,17.70
2022-10-30T13:23:55.955Z,18.00
2022-10-30T13:26:47.829Z,17.70
2022-10-30T13:29:41.603Z,17.70
2022-10-30T13:32:26.736Z,17.70
2022-10-30T13:35:11.685Z,17.80
2022-10-30T13:37:49.511Z,17.70
2022-10-30T13:40:20.746Z,17.80
2022-10-30T13:43:02.314Z,17.80
2022-10-30T13:45:39.499Z,17.80
2022-10-30T13:48:30.028Z,17.80
2022-10-30T13:51:17.259Z,17.80
2022-10-30T13:53:48.615Z,17.80
2022-10-30T13:56:18.802Z,17.90
2022-10-30T13:59:17.524Z,17.80
2022-10-30T14:02:00.627Z,17.90
2022-10-30T14:04:38.344Z,17.90
2022-10-30T14:07:26.312Z,17.90
2022-10-30T14:10:20.602Z,17.90
2022-10-30T14:13:04.392Z,17.90
2022-10-30T14:15:30.896Z,17.90
2022-10-30T14:18:12.561Z,17.90
2022-10-30T14:20:46.304Z,17.80
2022-10-30T14:23:48.393Z,17.90
2022-10-30T14:26:20.623Z,17.80
2022-10-30T14:28:49.059Z,17.90
2022-10-30T14:31:18.475Z,17.90
2022-10-30T14:33:50.828Z,17.80
2022-10-30T14:36:20.762Z,17.90
2022-10-30T14:39:14.635Z,17.90
2022-10-30T14:42:05.310Z,17.90
2022-10-30T14:44:56.290Z,17.80
2022-10-30T14:47:47.991Z,17.80
2022-10-30T14:50:26.485Z,17.80
2022-10-30T14:53:14.731Z,17.80
2022-10-30T14:56:11.587Z,17.80
2022-10-30T14:58:38.654Z,17.80
2022-10-30T15:01:23.188Z,17.70
2022-10-30T15:04:21.804Z,17.70
2022-10-30T15:06:56.355Z,17.70
2022-10-30T15:09:47.738Z,17.70
2022-10-30T15:12:34.446Z,17.70
2022-10-30T15:15:04.942Z,17.60
2022-10-30T15:17:40.037Z,17.60
2022-10-30T15:20:15.040Z,17.60
2022-10-30T15:22:42.142Z,17.60
2022-10-30T15:25:24.126Z,17.50
2022-10-30T15:27:53.976Z,17.50
2022-10-30T15:30:23.581Z,17.50
2022-10-30T15:32:50.602Z,17.50
2022-10-30T15:35:20.535Z,17.50
2022-10-30T15:38:10.348Z,17.30
2022-10-30T15:40:38.266Z,17.30
2022-10-30T15:43:08.730Z,17.30
2022-10-30T15:45:38.167Z,17.30
2022-10-30T15:48:27.579Z,17.20
2022-10-30T15:51:06.609Z,17.20
2022-10-30T15:53:55.498Z,17.20
2022-10-30T15:56:59.855Z,17.10
2022-10-30T15:59:30.149Z,17.10
2022-10-30T16:01:58.501Z,17.00
2022-10-30T16:04:31.449Z,17.00
2022-10-30T16:07:04.336Z,16.90
2022-10-30T16:09:31.076Z,16.90
2022-10-30T16:12:00.250Z,16.80
2022-10-30T16:14:34.150Z,16.80
2022-10-30T16:17:01.303Z,16.80
2022-10-30T16:19:38.793Z,16.70
2022-10-30T16:22:05.595Z,16.70
2022-10-30T16:24:35.872Z,16.60
2022-10-30T16:27:18.292Z,16.50
2022-10-30T16:29:48.383Z,16.60
2022-10-30T16:32:17.539Z,16.50
2022-10-30T16:34:45.129Z,16.50
2022-10-30T16:37:20.457Z,16.40
2022-10-30T16:39:51.224Z,16.40
2022-10-30T16:42:25.993Z,16.50
2022-10-30T16:45:18.532Z,16.40
2022-10-30T16:47:48.918Z,16.30
2022-10-30T16:50:16.700Z,16.30
2022-10-30T16:52:44.066Z,16.20
2022-10-30T16:55:29.803Z,16.30
2022-10-30T16:57:58.986Z,16.20
2022-10-30T17:00:28.966Z,16.10
2022-10-30T17:02:59.318Z,16.20
2022-10-30T17:05:27.547Z,16.10
2022-10-30T17:07:55.542Z,16.00
2022-10-30T17:10:42.582Z,16.00
2022-10-30T17:13:33.870Z,16.00
2022-10-30T17:16:12.454Z,15.90
2022-10-30T17:18:39.005Z,15.80
2022-10-30T17:21:12.236Z,15.80
2022-10-30T17:23:50.168Z,15.80
2022-10-30T17:26:18.253Z,15.70
2022-10-30T17:28:46.330Z,15.80
2022-10-30T17:31:19.018Z,15.70
2022-10-30T17:34:15.771Z,15.70
2022-10-30T17:36:43.398Z,15.70
2022-10-30T17:39:09.940Z,15.70
2022-10-30T17:41:36.668Z,15.70
2022-10-30T17:44:04.669Z,15.60
2022-10-30T17:46:31.209Z,15.60
2022-10-30T17:49:02.044Z,15.50
2022-10-30T17:51:29.212Z,15.50
2022-10-30T17:53:55.746Z,15.60
2022-10-30T17:56:27.479Z,15.40
2022-10-30T17:58:54.838Z,15.50
2022-10-30T18:01:25.729Z,15.50
2022-10-30T18:03:55.155Z,15.40
2022-10-30T18:06:24.177Z,15.50
2022-10-30T18:08:51.145Z,15.30
2022-10-30T18:11:19.891Z,15.40
2022-10-30T18:13:47.496Z,15.30
2022-10-30T18:16:16.540Z,15.30
2022-10-30T18:18:44.025Z,15.30
2022-10-30T18:21:16.571Z,15.30
2022-10-30T18:23:58.519Z,15.30
2022-10-30T18:26:27.606Z,15.30
2022-10-30T18:28:54.546Z,15.20
2022-10-30T18:31:23.177Z,15.30
2022-10-30T18:33:49.731Z,15.20
2022-10-30T18:36:22.621Z,15.10
2022-10-30T18:38:49.437Z,15.20
2022-10-30T18:41:20.195Z,15.10
2022-10-30T18:43:47.340Z,15.10
2022-10-30T18:46:15.112Z,15.00
2022-10-30T18:48:41.899Z,14.90
2022-10-30T18:51:18.614Z,15.10
2022-10-30T18:53:51.833Z,15.00
2022-10-30T18:56:28.783Z,15.00
2022-10-30T18:59:00.753Z,15.00
2022-10-30T19:01:31.858Z,14.90
2022-10-30T19:04:00.967Z,15.10
2022-10-30T19:06:28.000Z,14.90
2022-10-30T19:08:54.530Z,14.80
2022-10-30T19:11:24.650Z,14.80
2022-10-30T19:13:53.217Z,14.80
2022-10-30T19:16:21.130Z,14.80
2022-10-30T19:18:48.476Z,14.70
2022-10-30T19:36:24.045Z,14.60
2022-10-30T19:38:50.593Z,14.60
2022-10-30T19:41:17.243Z,14.60
2022-10-30T19:43:43.782Z,14.50
2022-10-30T19:46:10.426Z,14.50
2022-10-30T19:48:56.827Z,14.40
2022-10-30T19:56:20.769Z,14.40
2022-10-30T20:03:41.749Z,14.20
2022-10-30T20:06:14.209Z,14.20
2022-10-30T20:08:41.100Z,14.20
2022-10-30T20:11:08.181Z,14.10
2022-10-30T20:13:35.067Z,14.10
2022-10-30T20:16:04.520Z,14.10
2022-10-30T20:18:33.203Z,14.10
2022-10-30T20:21:02.616Z,14.10
2022-10-30T20:33:32.676Z,14.00
2022-10-30T20:38:32.672Z,14.10
2022-10-30T20:41:01.531Z,14.10
2022-10-30T20:43:38.822Z,14.00
2022-10-30T20:46:07.418Z,14.00
2022-10-30T20:48:33.975Z,14.00
2022-10-30T20:51:01.722Z,13.90
2022-10-30T20:53:29.485Z,14.10
2022-10-30T20:55:56.820Z,14.00
2022-10-30T20:58:24.294Z,13.90
2022-10-30T21:00:53.153Z,13.90
2022-10-30T21:03:19.733Z,13.90
2022-10-30T21:08:14.514Z,13.80
2022-10-30T21:10:41.875Z,13.80
2022-10-30T21:13:10.259Z,13.90
2022-10-30T21:15:42.895Z,13.70
2022-10-30T21:18:11.413Z,13.80
2022-10-30T21:20:38.486Z,13.80
2022-10-30T21:23:05.921Z,13.80
2022-10-30T21:25:32.935Z,13.70
2022-10-30T21:28:02.187Z,13.60
2022-10-30T22:45:36.727Z,13.40
